sensor_id;sensor_type;location;lat;lon;timestamp;P1;durP1;ratioP1;P2;durP2;ratioP2
68319;SDS011;55168;51.120;17.024;2023-02-15T00:00:00;29.9;;;19.6;;
68319;SDS011;55168;51.120;17.024;2023-02-15T00:01:08;29.7;;;19.5;;
68319;SDS011;55168;51.120;17.024;2023-02-15T00:02:00;29.7;;;19.5;;
68319;SDS011;55168;51.120;17.024;2023-02-15T00:03:00;29.7;;;19.5;;
68319;SDS011;55168;51.120;17.024;2023-02-15T00:04:00;29.7;;;19.5;;
68319;SDS011;55168;51.120;17.024;2023-02-15T00:05:00;29.7;;;19.5;;
68319;SDS011;55168;51.120;17.024;2023-02-15T00:06:00;29.3;;;19.3;;
68319;SDS011;55168;51.120;17.024;2023-02-15T00:07:00;29.3;;;19.3;;
68319;SDS011;55168;51.120;17.024;2023-02-15T00:08:00;29.3;;;19.3;;
68319;SDS011;55168;51.120;17.024;2023-02-15T00:09:00;29.3;;;19.3;;
68319;SDS011;55168;51.120;17.024;2023-02-15T00:10:00;29.3;;;19.3;;
68319;SDS011;55168;51.120;17.024;2023-02-15T00:11:09;30.5;;;20.2;;
68319;SDS011;55168;51.120;17.024;2023-02-15T00:12:00;30.5;;;20.2;;
68319;SDS011;55168;51.120;17.024;2023-02-15T00:13:00;30.5;;;20.2;;
68319;SDS011;55168;51.120;17.024;2023-02-15T00:14:00;30.5;;;20.2;;
68319;SDS011;55168;51.120;17.024;2023-02-15T00:15:00;30.5;;;20.2;;
68319;SDS011;55168;51.120;17.024;2023-02-15T00:16:01;30.5;;;20.6;;
68319;SDS011;55168;51.120;17.024;2023-02-15T00:17:00;30.5;;;20.6;;
68319;SDS011;55168;51.120;17.024;2023-02-15T00:18:00;30.5;;;20.6;;
68319;SDS011;55168;51.120;17.024;2023-02-15T00:19:00;30.5;;;20.6;;
68319;SDS011;55168;51.120;17.024;2023-02-15T00:20:00;30.5;;;20.6;;
68319;SDS011;55168;51.120;17.024;2023-02-15T00:21:06;30.6;;;19.9;;
68319;SDS011;55168;51.120;17.024;2023-02-15T00:22:00;30.6;;;19.9;;
68319;SDS011;55168;51.120;17.024;2023-02-15T00:23:00;30.6;;;19.9;;
68319;SDS011;55168;51.120;17.024;2023-02-15T00:24:01;30.6;;;19.9;;
68319;SDS011;55168;51.120;17.024;2023-02-15T00:25:00;30.6;;;19.9;;
68319;SDS011;55168;51.120;17.024;2023-02-15T00:26:04;31.6;;;20.7;;
68319;SDS011;55168;51.120;17.024;2023-02-15T00:27:00;31.6;;;20.7;;
68319;SDS011;55168;51.120;17.024;2023-02-15T00:28:00;31.6;;;20.7;;
68319;SDS011;55168;51.120;17.024;2023-02-15T00:29:00;31.6;;;20.7;;
68319;SDS011;55168;51.120;17.024;2023-02-15T00:30:00;31.6;;;20.7;;
68319;SDS011;55168;51.120;17.024;2023-02-15T00:31:04;31.8;;;20.0;;
68319;SDS011;55168;51.120;17.024;2023-02-15T00:32:00;31.8;;;20.0;;
68319;SDS011;55168;51.120;17.024;2023-02-15T00:33:00;31.8;;;20.0;;
68319;SDS011;55168;51.120;17.024;2023-02-15T00:34:04;31.8;;;20.0;;
68319;SDS011;55168;51.120;17.024;2023-02-15T00:35:00;31.8;;;20.0;;
68319;SDS011;55168;51.120;17.024;2023-02-15T00:36:01;30.3;;;20.3;;
68319;SDS011;55168;51.120;17.024;2023-02-15T00:37:00;30.3;;;20.3;;
68319;SDS011;55168;51.120;17.024;2023-02-15T00:38:00;30.3;;;20.3;;
68319;SDS011;55168;51.120;17.024;2023-02-15T00:39:00;30.3;;;20.3;;
68319;SDS011;55168;51.120;17.024;2023-02-15T00:40:00;30.3;;;20.3;;
68319;SDS011;55168;51.120;17.024;2023-02-15T00:41:02;30.3;;;20.5;;
68319;SDS011;55168;51.120;17.024;2023-02-15T00:42:00;30.3;;;20.5;;
68319;SDS011;55168;51.120;17.024;2023-02-15T00:43:00;30.3;;;20.5;;
68319;SDS011;55168;51.120;17.024;2023-02-15T00:44:00;30.3;;;20.5;;
68319;SDS011;55168;51.120;17.024;2023-02-15T00:45:00;30.3;;;20.5;;
68319;SDS011;55168;51.120;17.024;2023-02-15T00:46:00;31.7;;;20.8;;
68319;SDS011;55168;51.120;17.024;2023-02-15T00:47:00;31.7;;;20.8;;
68319;SDS011;55168;51.120;17.024;2023-02-15T00:48:00;31.7;;;20.8;;
68319;SDS011;55168;51.120;17.024;2023-02-15T00:49:00;31.7;;;20.8;;
68319;SDS011;55168;51.120;17.024;2023-02-15T00:50:00;31.7;;;20.8;;
68319;SDS011;55168;51.120;17.024;2023-02-15T00:51:00;34.7;;;20.8;;
68319;SDS011;55168;51.120;17.024;2023-02-15T00:52:00;34.7;;;20.8;;
68319;SDS011;55168;51.120;17.024;2023-02-15T00:53:00;34.7;;;20.8;;
68319;SDS011;55168;51.120;17.024;2023-02-15T00:54:00;34.7;;;20.8;;
68319;SDS011;55168;51.120;17.024;2023-02-15T00:55:00;34.7;;;20.8;;
68319;SDS011;55168;51.120;17.024;2023-02-15T00:56:00;35.5;;;22.8;;
68319;SDS011;55168;51.120;17.024;2023-02-15T00:57:00;35.5;;;22.8;;
68319;SDS011;55168;51.120;17.024;2023-02-15T00:58:00;35.5;;;22.8;;
68319;SDS011;55168;51.120;17.024;2023-02-15T00:59:00;35.5;;;22.8;;
68319;SDS011;55168;51.120;17.024;2023-02-15T01:00:00;35.5;;;22.8;;
68319;SDS011;55168;51.120;17.024;2023-02-15T01:01:04;37.0;;;23.0;;
68319;SDS011;55168;51.120;17.024;2023-02-15T01:02:00;37.0;;;23.0;;
68319;SDS011;55168;51.120;17.024;2023-02-15T01:03:00;37.0;;;23.0;;
68319;SDS011;55168;51.120;17.024;2023-02-15T01:04:01;37.0;;;23.0;;
68319;SDS011;55168;51.120;17.024;2023-02-15T01:05:00;37.0;;;23.0;;
68319;SDS011;55168;51.120;17.024;2023-02-15T01:06:00;37.4;;;24.2;;
68319;SDS011;55168;51.120;17.024;2023-02-15T01:07:00;37.4;;;24.2;;
68319;SDS011;55168;51.120;17.024;2023-02-15T01:08:00;37.4;;;24.2;;
68319;SDS011;55168;51.120;17.024;2023-02-15T01:09:00;37.4;;;24.2;;
68319;SDS011;55168;51.120;17.024;2023-02-15T01:10:00;37.4;;;24.2;;
68319;SDS011;55168;51.120;17.024;2023-02-15T01:11:05;39.8;;;25.4;;
68319;SDS011;55168;51.120;17.024;2023-02-15T01:12:00;39.8;;;25.4;;
68319;SDS011;55168;51.120;17.024;2023-02-15T01:13:00;39.8;;;25.4;;
68319;SDS011;55168;51.120;17.024;2023-02-15T01:14:00;39.8;;;25.4;;
68319;SDS011;55168;51.120;17.024;2023-02-15T01:15:00;39.8;;;25.4;;
68319;SDS011;55168;51.120;17.024;2023-02-15T01:16:00;41.7;;;25.4;;
68319;SDS011;55168;51.120;17.024;2023-02-15T01:17:00;41.7;;;25.4;;
68319;SDS011;55168;51.120;17.024;2023-02-15T01:18:00;41.7;;;25.4;;
68319;SDS011;55168;51.120;17.024;2023-02-15T01:19:00;41.7;;;25.4;;
68319;SDS011;55168;51.120;17.024;2023-02-15T01:20:00;41.7;;;25.4;;
68319;SDS011;55168;51.120;17.024;2023-02-15T01:21:00;43.8;;;26.7;;
68319;SDS011;55168;51.120;17.024;2023-02-15T01:22:00;43.8;;;26.7;;
68319;SDS011;55168;51.120;17.024;2023-02-15T01:23:00;43.8;;;26.7;;
68319;SDS011;55168;51.120;17.024;2023-02-15T01:24:00;43.8;;;26.7;;
68319;SDS011;55168;51.120;17.024;2023-02-15T01:25:00;43.8;;;26.7;;
68319;SDS011;55168;51.120;17.024;2023-02-15T01:26:02;42.8;;;25.9;;
68319;SDS011;55168;51.120;17.024;2023-02-15T01:27:00;42.8;;;25.9;;
68319;SDS011;55168;51.120;17.024;2023-02-15T01:28:00;42.8;;;25.9;;
68319;SDS011;55168;51.120;17.024;2023-02-15T01:29:00;42.8;;;25.9;;
68319;SDS011;55168;51.120;17.024;2023-02-15T01:30:00;42.8;;;25.9;;
68319;SDS011;55168;51.120;17.024;2023-02-15T01:31:05;40.5;;;25.4;;
68319;SDS011;55168;51.120;17.024;2023-02-15T01:32:00;40.5;;;25.4;;
68319;SDS011;55168;51.120;17.024;2023-02-15T01:33:00;40.5;;;25.4;;
68319;SDS011;55168;51.120;17.024;2023-02-15T01:34:00;40.5;;;25.4;;
68319;SDS011;55168;51.120;17.024;2023-02-15T01:35:00;40.5;;;25.4;;
68319;SDS011;55168;51.120;17.024;2023-02-15T01:36:00;40.5;;;24.3;;
68319;SDS011;55168;51.120;17.024;2023-02-15T01:37:00;40.5;;;24.3;;
68319;SDS011;55168;51.120;17.024;2023-02-15T01:38:00;40.5;;;24.3;;
68319;SDS011;55168;51.120;17.024;2023-02-15T01:39:00;40.5;;;24.3;;
68319;SDS011;55168;51.120;17.024;2023-02-15T01:40:01;40.5;;;24.3;;
68319;SDS011;55168;51.120;17.024;2023-02-15T01:41:00;39.9;;;24.3;;
68319;SDS011;55168;51.120;17.024;2023-02-15T01:42:00;39.9;;;24.3;;
68319;SDS011;55168;51.120;17.024;2023-02-15T01:43:00;39.9;;;24.3;;
68319;SDS011;55168;51.120;17.024;2023-02-15T01:44:01;39.9;;;24.3;;
68319;SDS011;55168;51.120;17.024;2023-02-15T01:45:02;39.9;;;24.3;;
68319;SDS011;55168;51.120;17.024;2023-02-15T01:46:00;40.5;;;25.2;;
68319;SDS011;55168;51.120;17.024;2023-02-15T01:47:00;40.5;;;25.2;;
68319;SDS011;55168;51.120;17.024;2023-02-15T01:48:05;40.5;;;25.2;;
68319;SDS011;55168;51.120;17.024;2023-02-15T01:49:04;40.5;;;25.2;;
68319;SDS011;55168;51.120;17.024;2023-02-15T01:51:01;44.9;;;26.9;;
68319;SDS011;55168;51.120;17.024;2023-02-15T01:52:00;44.9;;;26.9;;
68319;SDS011;55168;51.120;17.024;2023-02-15T01:53:06;44.9;;;26.9;;
68319;SDS011;55168;51.120;17.024;2023-02-15T01:54:03;44.9;;;26.9;;
68319;SDS011;55168;51.120;17.024;2023-02-15T01:55:00;44.9;;;26.9;;
68319;SDS011;55168;51.120;17.024;2023-02-15T01:56:11;42.6;;;26.3;;
68319;SDS011;55168;51.120;17.024;2023-02-15T01:57:05;42.6;;;26.3;;
68319;SDS011;55168;51.120;17.024;2023-02-15T01:58:00;42.6;;;26.3;;
68319;SDS011;55168;51.120;17.024;2023-02-15T01:59:04;42.6;;;26.3;;
68319;SDS011;55168;51.120;17.024;2023-02-15T02:00:02;42.6;;;26.3;;
68319;SDS011;55168;51.120;17.024;2023-02-15T02:01:00;44.2;;;26.7;;
68319;SDS011;55168;51.120;17.024;2023-02-15T02:02:01;44.2;;;26.7;;
68319;SDS011;55168;51.120;17.024;2023-02-15T02:03:01;44.2;;;26.7;;
68319;SDS011;55168;51.120;17.024;2023-02-15T02:04:07;44.2;;;26.7;;
68319;SDS011;55168;51.120;17.024;2023-02-15T02:05:02;44.2;;;26.7;;
68319;SDS011;55168;51.120;17.024;2023-02-15T02:06:00;42.3;;;26.4;;
68319;SDS011;55168;51.120;17.024;2023-02-15T02:07:00;42.3;;;26.4;;
68319;SDS011;55168;51.120;17.024;2023-02-15T02:08:01;42.3;;;26.4;;
68319;SDS011;55168;51.120;17.024;2023-02-15T02:09:00;42.3;;;26.4;;
68319;SDS011;55168;51.120;17.024;2023-02-15T02:10:01;42.3;;;26.4;;
68319;SDS011;55168;51.120;17.024;2023-02-15T02:11:00;44.3;;;26.4;;
68319;SDS011;55168;51.120;17.024;2023-02-15T02:12:00;44.3;;;26.4;;
68319;SDS011;55168;51.120;17.024;2023-02-15T02:13:02;44.3;;;26.4;;
68319;SDS011;55168;51.120;17.024;2023-02-15T02:14:00;44.3;;;26.4;;
68319;SDS011;55168;51.120;17.024;2023-02-15T02:15:00;44.3;;;26.4;;
68319;SDS011;55168;51.120;17.024;2023-02-15T02:16:04;44.0;;;27.2;;
68319;SDS011;55168;51.120;17.024;2023-02-15T02:17:18;44.0;;;27.2;;
68319;SDS011;55168;51.120;17.024;2023-02-15T02:18:08;44.0;;;27.2;;
68319;SDS011;55168;51.120;17.024;2023-02-15T02:22:15;44.8;;;27.5;;
68319;SDS011;55168;51.120;17.024;2023-02-15T02:23:28;44.8;;;27.5;;
68319;SDS011;55168;51.120;17.024;2023-02-15T02:24:32;44.8;;;27.5;;
68319;SDS011;55168;51.120;17.024;2023-02-15T02:26:16;44.8;;;26.9;;
68319;SDS011;55168;51.120;17.024;2023-02-15T02:27:12;44.8;;;26.9;;
68319;SDS011;55168;51.120;17.024;2023-02-15T02:28:19;44.8;;;26.9;;
68319;SDS011;55168;51.120;17.024;2023-02-15T02:29:16;44.8;;;26.9;;
68319;SDS011;55168;51.120;17.024;2023-02-15T02:34:08;45.9;;;27.1;;
68319;SDS011;55168;51.120;17.024;2023-02-15T02:35:04;45.9;;;27.1;;
68319;SDS011;55168;51.120;17.024;2023-02-15T02:37:10;47.7;;;27.8;;
68319;SDS011;55168;51.120;17.024;2023-02-15T02:38:10;47.7;;;27.8;;
68319;SDS011;55168;51.120;17.024;2023-02-15T02:40:28;47.7;;;27.8;;
68319;SDS011;55168;51.120;17.024;2023-02-15T02:41:05;41.7;;;26.4;;
68319;SDS011;55168;51.120;17.024;2023-02-15T02:42:05;41.7;;;26.4;;
68319;SDS011;55168;51.120;17.024;2023-02-15T02:43:05;41.7;;;26.4;;
68319;SDS011;55168;51.120;17.024;2023-02-15T02:44:07;41.7;;;26.4;;
68319;SDS011;55168;51.120;17.024;2023-02-15T02:45:04;41.7;;;26.4;;
68319;SDS011;55168;51.120;17.024;2023-02-15T02:46:06;41.8;;;26.1;;
68319;SDS011;55168;51.120;17.024;2023-02-15T02:47:03;41.8;;;26.1;;
68319;SDS011;55168;51.120;17.024;2023-02-15T02:48:03;41.8;;;26.1;;
68319;SDS011;55168;51.120;17.024;2023-02-15T02:49:00;41.8;;;26.1;;
68319;SDS011;55168;51.120;17.024;2023-02-15T02:50:05;41.8;;;26.1;;
68319;SDS011;55168;51.120;17.024;2023-02-15T02:51:00;44.8;;;26.7;;
68319;SDS011;55168;51.120;17.024;2023-02-15T02:52:02;44.8;;;26.7;;
68319;SDS011;55168;51.120;17.024;2023-02-15T02:53:00;44.8;;;26.7;;
68319;SDS011;55168;51.120;17.024;2023-02-15T02:54:04;44.8;;;26.7;;
68319;SDS011;55168;51.120;17.024;2023-02-15T02:55:01;44.8;;;26.7;;
68319;SDS011;55168;51.120;17.024;2023-02-15T02:56:09;41.6;;;25.8;;
68319;SDS011;55168;51.120;17.024;2023-02-15T02:57:03;41.6;;;25.8;;
68319;SDS011;55168;51.120;17.024;2023-02-15T02:58:05;41.6;;;25.8;;
68319;SDS011;55168;51.120;17.024;2023-02-15T02:59:04;41.6;;;25.8;;
68319;SDS011;55168;51.120;17.024;2023-02-15T03:00:02;41.6;;;25.8;;
68319;SDS011;55168;51.120;17.024;2023-02-15T03:01:04;44.9;;;27.8;;
68319;SDS011;55168;51.120;17.024;2023-02-15T03:02:09;44.9;;;27.8;;
68319;SDS011;55168;51.120;17.024;2023-02-15T03:03:02;44.9;;;27.8;;
68319;SDS011;55168;51.120;17.024;2023-02-15T03:04:05;44.9;;;27.8;;
68319;SDS011;55168;51.120;17.024;2023-02-15T03:05:03;44.9;;;27.8;;
68319;SDS011;55168;51.120;17.024;2023-02-15T03:06:03;39.3;;;23.8;;
68319;SDS011;55168;51.120;17.024;2023-02-15T03:07:02;39.3;;;23.8;;
68319;SDS011;55168;51.120;17.024;2023-02-15T03:08:02;39.3;;;23.8;;
68319;SDS011;55168;51.120;17.024;2023-02-15T03:09:07;39.3;;;23.8;;
68319;SDS011;55168;51.120;17.024;2023-02-15T03:10:02;39.3;;;23.8;;
68319;SDS011;55168;51.120;17.024;2023-02-15T03:11:01;43.5;;;26.6;;
68319;SDS011;55168;51.120;17.024;2023-02-15T03:12:00;43.5;;;26.6;;
68319;SDS011;55168;51.120;17.024;2023-02-15T03:13:00;43.5;;;26.6;;
68319;SDS011;55168;51.120;17.024;2023-02-15T03:14:00;43.5;;;26.6;;
68319;SDS011;55168;51.120;17.024;2023-02-15T03:15:04;43.5;;;26.6;;
68319;SDS011;55168;51.120;17.024;2023-02-15T03:16:01;43.8;;;25.7;;
68319;SDS011;55168;51.120;17.024;2023-02-15T03:17:01;43.8;;;25.7;;
68319;SDS011;55168;51.120;17.024;2023-02-15T03:18:01;43.8;;;25.7;;
68319;SDS011;55168;51.120;17.024;2023-02-15T03:19:07;43.8;;;25.7;;
68319;SDS011;55168;51.120;17.024;2023-02-15T03:20:06;43.8;;;25.7;;
68319;SDS011;55168;51.120;17.024;2023-02-15T03:21:01;41.0;;;24.8;;
68319;SDS011;55168;51.120;17.024;2023-02-15T03:22:06;41.0;;;24.8;;
68319;SDS011;55168;51.120;17.024;2023-02-15T03:23:04;41.0;;;24.8;;
68319;SDS011;55168;51.120;17.024;2023-02-15T03:24:07;41.0;;;24.8;;
68319;SDS011;55168;51.120;17.024;2023-02-15T03:25:06;41.0;;;24.8;;
68319;SDS011;55168;51.120;17.024;2023-02-15T03:26:03;40.2;;;25.7;;
68319;SDS011;55168;51.120;17.024;2023-02-15T03:27:03;40.2;;;25.7;;
68319;SDS011;55168;51.120;17.024;2023-02-15T03:28:05;40.2;;;25.7;;
68319;SDS011;55168;51.120;17.024;2023-02-15T03:29:02;40.2;;;25.7;;
68319;SDS011;55168;51.120;17.024;2023-02-15T03:30:02;40.2;;;25.7;;
68319;SDS011;55168;51.120;17.024;2023-02-15T03:31:03;42.4;;;25.2;;
68319;SDS011;55168;51.120;17.024;2023-02-15T03:32:03;42.4;;;25.2;;
68319;SDS011;55168;51.120;17.024;2023-02-15T03:33:00;42.4;;;25.2;;
68319;SDS011;55168;51.120;17.024;2023-02-15T03:34:02;42.4;;;25.2;;
68319;SDS011;55168;51.120;17.024;2023-02-15T03:35:00;42.4;;;25.2;;
68319;SDS011;55168;51.120;17.024;2023-02-15T03:36:12;40.3;;;25.6;;
68319;SDS011;55168;51.120;17.024;2023-02-15T03:38:01;40.3;;;25.6;;
68319;SDS011;55168;51.120;17.024;2023-02-15T03:39:16;40.3;;;25.6;;
68319;SDS011;55168;51.120;17.024;2023-02-15T03:40:09;40.3;;;25.6;;
68319;SDS011;55168;51.120;17.024;2023-02-15T03:41:02;40.4;;;25.7;;
68319;SDS011;55168;51.120;17.024;2023-02-15T03:42:11;40.4;;;25.7;;
68319;SDS011;55168;51.120;17.024;2023-02-15T03:43:11;40.4;;;25.7;;
68319;SDS011;55168;51.120;17.024;2023-02-15T03:44:06;40.4;;;25.7;;
68319;SDS011;55168;51.120;17.024;2023-02-15T03:45:10;40.4;;;25.7;;
68319;SDS011;55168;51.120;17.024;2023-02-15T03:46:07;46.5;;;28.1;;
68319;SDS011;55168;51.120;17.024;2023-02-15T03:47:12;46.5;;;28.1;;
68319;SDS011;55168;51.120;17.024;2023-02-15T03:48:01;46.5;;;28.1;;
68319;SDS011;55168;51.120;17.024;2023-02-15T03:49:04;46.5;;;28.1;;
68319;SDS011;55168;51.120;17.024;2023-02-15T03:50:03;46.5;;;28.1;;
68319;SDS011;55168;51.120;17.024;2023-02-15T03:51:05;40.5;;;26.1;;
68319;SDS011;55168;51.120;17.024;2023-02-15T03:52:02;40.5;;;26.1;;
68319;SDS011;55168;51.120;17.024;2023-02-15T03:53:02;40.5;;;26.1;;
68319;SDS011;55168;51.120;17.024;2023-02-15T03:54:20;40.5;;;26.1;;
68319;SDS011;55168;51.120;17.024;2023-02-15T03:55:00;40.5;;;26.1;;
68319;SDS011;55168;51.120;17.024;2023-02-15T03:56:00;41.6;;;26.2;;
68319;SDS011;55168;51.120;17.024;2023-02-15T03:57:01;41.6;;;26.2;;
68319;SDS011;55168;51.120;17.024;2023-02-15T03:58:00;41.6;;;26.2;;
68319;SDS011;55168;51.120;17.024;2023-02-15T03:59:00;41.6;;;26.2;;
68319;SDS011;55168;51.120;17.024;2023-02-15T04:00:03;41.6;;;26.2;;
68319;SDS011;55168;51.120;17.024;2023-02-15T04:01:05;41.9;;;26.5;;
68319;SDS011;55168;51.120;17.024;2023-02-15T04:02:15;41.9;;;26.5;;
68319;SDS011;55168;51.120;17.024;2023-02-15T04:03:09;41.9;;;26.5;;
68319;SDS011;55168;51.120;17.024;2023-02-15T04:04:03;41.9;;;26.5;;
68319;SDS011;55168;51.120;17.024;2023-02-15T04:05:00;41.9;;;26.5;;
68319;SDS011;55168;51.120;17.024;2023-02-15T04:06:01;40.5;;;25.6;;
68319;SDS011;55168;51.120;17.024;2023-02-15T04:07:01;40.5;;;25.6;;
68319;SDS011;55168;51.120;17.024;2023-02-15T04:08:00;40.5;;;25.6;;
68319;SDS011;55168;51.120;17.024;2023-02-15T04:09:00;40.5;;;25.6;;
68319;SDS011;55168;51.120;17.024;2023-02-15T04:10:00;40.5;;;25.6;;
68319;SDS011;55168;51.120;17.024;2023-02-15T04:11:00;41.5;;;25.6;;
68319;SDS011;55168;51.120;17.024;2023-02-15T04:12:00;41.5;;;25.6;;
68319;SDS011;55168;51.120;17.024;2023-02-15T04:13:00;41.5;;;25.6;;
68319;SDS011;55168;51.120;17.024;2023-02-15T04:14:00;41.5;;;25.6;;
68319;SDS011;55168;51.120;17.024;2023-02-15T04:15:00;41.5;;;25.6;;
68319;SDS011;55168;51.120;17.024;2023-02-15T04:16:00;42.2;;;26.8;;
68319;SDS011;55168;51.120;17.024;2023-02-15T04:17:00;42.2;;;26.8;;
68319;SDS011;55168;51.120;17.024;2023-02-15T04:18:02;42.2;;;26.8;;
68319;SDS011;55168;51.120;17.024;2023-02-15T04:19:00;42.2;;;26.8;;
68319;SDS011;55168;51.120;17.024;2023-02-15T04:20:00;42.2;;;26.8;;
68319;SDS011;55168;51.120;17.024;2023-02-15T04:21:00;48.0;;;28.5;;
68319;SDS011;55168;51.120;17.024;2023-02-15T04:22:00;48.0;;;28.5;;
68319;SDS011;55168;51.120;17.024;2023-02-15T04:23:00;48.0;;;28.5;;
68319;SDS011;55168;51.120;17.024;2023-02-15T04:24:00;48.0;;;28.5;;
68319;SDS011;55168;51.120;17.024;2023-02-15T04:25:00;48.0;;;28.5;;
68319;SDS011;55168;51.120;17.024;2023-02-15T04:26:02;38.7;;;25.2;;
68319;SDS011;55168;51.120;17.024;2023-02-15T04:27:00;38.7;;;25.2;;
68319;SDS011;55168;51.120;17.024;2023-02-15T04:28:00;38.7;;;25.2;;
68319;SDS011;55168;51.120;17.024;2023-02-15T04:29:00;38.7;;;25.2;;
68319;SDS011;55168;51.120;17.024;2023-02-15T04:30:00;38.7;;;25.2;;
68319;SDS011;55168;51.120;17.024;2023-02-15T04:31:00;39.7;;;25.1;;
68319;SDS011;55168;51.120;17.024;2023-02-15T04:32:00;39.7;;;25.1;;
68319;SDS011;55168;51.120;17.024;2023-02-15T04:33:00;39.7;;;25.1;;
68319;SDS011;55168;51.120;17.024;2023-02-15T04:34:00;39.7;;;25.1;;
68319;SDS011;55168;51.120;17.024;2023-02-15T04:35:00;39.7;;;25.1;;
68319;SDS011;55168;51.120;17.024;2023-02-15T04:36:00;39.1;;;25.6;;
68319;SDS011;55168;51.120;17.024;2023-02-15T04:37:00;39.1;;;25.6;;
68319;SDS011;55168;51.120;17.024;2023-02-15T04:38:00;39.1;;;25.6;;
68319;SDS011;55168;51.120;17.024;2023-02-15T04:39:00;39.1;;;25.6;;
68319;SDS011;55168;51.120;17.024;2023-02-15T04:40:00;39.1;;;25.6;;
68319;SDS011;55168;51.120;17.024;2023-02-15T04:41:00;43.1;;;26.4;;
68319;SDS011;55168;51.120;17.024;2023-02-15T04:42:00;43.1;;;26.4;;
68319;SDS011;55168;51.120;17.024;2023-02-15T04:43:00;43.1;;;26.4;;
68319;SDS011;55168;51.120;17.024;2023-02-15T04:44:00;43.1;;;26.4;;
68319;SDS011;55168;51.120;17.024;2023-02-15T04:45:00;39.8;;;25.9;;
68319;SDS011;55168;51.120;17.024;2023-02-15T04:46:00;39.8;;;25.9;;
68319;SDS011;55168;51.120;17.024;2023-02-15T04:47:00;39.8;;;25.9;;
68319;SDS011;55168;51.120;17.024;2023-02-15T04:48:00;39.8;;;25.9;;
68319;SDS011;55168;51.120;17.024;2023-02-15T04:49:00;39.8;;;25.9;;
68319;SDS011;55168;51.120;17.024;2023-02-15T04:50:00;41.1;;;25.6;;
68319;SDS011;55168;51.120;17.024;2023-02-15T04:51:04;41.1;;;25.6;;
68319;SDS011;55168;51.120;17.024;2023-02-15T04:52:00;41.1;;;25.6;;
68319;SDS011;55168;51.120;17.024;2023-02-15T04:53:00;41.1;;;25.6;;
68319;SDS011;55168;51.120;17.024;2023-02-15T04:54:00;41.1;;;25.6;;
68319;SDS011;55168;51.120;17.024;2023-02-15T04:55:00;43.8;;;26.7;;
68319;SDS011;55168;51.120;17.024;2023-02-15T04:56:00;43.8;;;26.7;;
68319;SDS011;55168;51.120;17.024;2023-02-15T04:57:00;43.8;;;26.7;;
68319;SDS011;55168;51.120;17.024;2023-02-15T04:58:00;43.8;;;26.7;;
68319;SDS011;55168;51.120;17.024;2023-02-15T04:59:00;43.8;;;26.7;;
68319;SDS011;55168;51.120;17.024;2023-02-15T05:00:00;40.1;;;25.8;;
68319;SDS011;55168;51.120;17.024;2023-02-15T05:01:00;40.1;;;25.8;;
68319;SDS011;55168;51.120;17.024;2023-02-15T05:02:00;40.1;;;25.8;;
68319;SDS011;55168;51.120;17.024;2023-02-15T05:03:00;40.1;;;25.8;;
68319;SDS011;55168;51.120;17.024;2023-02-15T05:04:00;40.1;;;25.8;;
68319;SDS011;55168;51.120;17.024;2023-02-15T05:05:00;40.5;;;26.0;;
68319;SDS011;55168;51.120;17.024;2023-02-15T05:06:00;40.5;;;26.0;;
68319;SDS011;55168;51.120;17.024;2023-02-15T05:07:00;40.5;;;26.0;;
68319;SDS011;55168;51.120;17.024;2023-02-15T05:08:00;40.5;;;26.0;;
68319;SDS011;55168;51.120;17.024;2023-02-15T05:09:00;40.5;;;26.0;;
68319;SDS011;55168;51.120;17.024;2023-02-15T05:10:00;40.1;;;25.9;;
68319;SDS011;55168;51.120;17.024;2023-02-15T05:11:00;40.1;;;25.9;;
68319;SDS011;55168;51.120;17.024;2023-02-15T05:12:00;40.1;;;25.9;;
68319;SDS011;55168;51.120;17.024;2023-02-15T05:13:00;40.1;;;25.9;;
68319;SDS011;55168;51.120;17.024;2023-02-15T05:14:00;40.1;;;25.9;;
68319;SDS011;55168;51.120;17.024;2023-02-15T05:15:00;44.0;;;26.2;;
68319;SDS011;55168;51.120;17.024;2023-02-15T05:16:00;44.0;;;26.2;;
68319;SDS011;55168;51.120;17.024;2023-02-15T05:17:00;44.0;;;26.2;;
68319;SDS011;55168;51.120;17.024;2023-02-15T05:18:00;44.0;;;26.2;;
68319;SDS011;55168;51.120;17.024;2023-02-15T05:19:00;44.0;;;26.2;;
68319;SDS011;55168;51.120;17.024;2023-02-15T05:20:00;40.1;;;26.3;;
68319;SDS011;55168;51.120;17.024;2023-02-15T05:21:00;40.1;;;26.3;;
68319;SDS011;55168;51.120;17.024;2023-02-15T05:22:00;40.1;;;26.3;;
68319;SDS011;55168;51.120;17.024;2023-02-15T05:23:00;40.1;;;26.3;;
68319;SDS011;55168;51.120;17.024;2023-02-15T05:24:00;40.1;;;26.3;;
68319;SDS011;55168;51.120;17.024;2023-02-15T05:25:00;43.1;;;27.0;;
68319;SDS011;55168;51.120;17.024;2023-02-15T05:26:00;43.1;;;27.0;;
68319;SDS011;55168;51.120;17.024;2023-02-15T05:27:00;43.1;;;27.0;;
68319;SDS011;55168;51.120;17.024;2023-02-15T05:28:00;43.1;;;27.0;;
68319;SDS011;55168;51.120;17.024;2023-02-15T05:29:00;43.1;;;27.0;;
68319;SDS011;55168;51.120;17.024;2023-02-15T05:30:00;43.6;;;26.8;;
68319;SDS011;55168;51.120;17.024;2023-02-15T05:31:11;43.6;;;26.8;;
68319;SDS011;55168;51.120;17.024;2023-02-15T05:32:00;43.6;;;26.8;;
68319;SDS011;55168;51.120;17.024;2023-02-15T05:33:00;43.6;;;26.8;;
68319;SDS011;55168;51.120;17.024;2023-02-15T05:34:00;43.6;;;26.8;;
68319;SDS011;55168;51.120;17.024;2023-02-15T05:35:00;42.4;;;27.8;;
68319;SDS011;55168;51.120;17.024;2023-02-15T05:36:00;42.4;;;27.8;;
68319;SDS011;55168;51.120;17.024;2023-02-15T05:37:00;42.4;;;27.8;;
68319;SDS011;55168;51.120;17.024;2023-02-15T05:38:00;42.4;;;27.8;;
68319;SDS011;55168;51.120;17.024;2023-02-15T05:39:00;42.4;;;27.8;;
68319;SDS011;55168;51.120;17.024;2023-02-15T05:40:00;42.8;;;27.3;;
68319;SDS011;55168;51.120;17.024;2023-02-15T05:41:00;42.8;;;27.3;;
68319;SDS011;55168;51.120;17.024;2023-02-15T05:42:00;42.8;;;27.3;;
68319;SDS011;55168;51.120;17.024;2023-02-15T05:43:00;42.8;;;27.3;;
68319;SDS011;55168;51.120;17.024;2023-02-15T05:44:00;42.8;;;27.3;;
68319;SDS011;55168;51.120;17.024;2023-02-15T05:45:00;43.5;;;27.4;;
68319;SDS011;55168;51.120;17.024;2023-02-15T05:46:00;43.5;;;27.4;;
68319;SDS011;55168;51.120;17.024;2023-02-15T05:47:00;43.5;;;27.4;;
68319;SDS011;55168;51.120;17.024;2023-02-15T05:48:00;43.5;;;27.4;;
68319;SDS011;55168;51.120;17.024;2023-02-15T05:49:00;43.5;;;27.4;;
68319;SDS011;55168;51.120;17.024;2023-02-15T05:50:00;44.8;;;27.9;;
68319;SDS011;55168;51.120;17.024;2023-02-15T05:51:02;44.8;;;27.9;;
68319;SDS011;55168;51.120;17.024;2023-02-15T05:52:00;44.8;;;27.9;;
68319;SDS011;55168;51.120;17.024;2023-02-15T05:53:00;44.8;;;27.9;;
68319;SDS011;55168;51.120;17.024;2023-02-15T05:54:02;44.8;;;27.9;;
68319;SDS011;55168;51.120;17.024;2023-02-15T05:55:00;42.9;;;26.4;;
68319;SDS011;55168;51.120;17.024;2023-02-15T05:56:00;42.9;;;26.4;;
68319;SDS011;55168;51.120;17.024;2023-02-15T05:57:00;42.9;;;26.4;;
68319;SDS011;55168;51.120;17.024;2023-02-15T05:58:00;42.9;;;26.4;;
68319;SDS011;55168;51.120;17.024;2023-02-15T05:59:00;42.9;;;26.4;;
68319;SDS011;55168;51.120;17.024;2023-02-15T06:00:00;42.8;;;27.5;;
68319;SDS011;55168;51.120;17.024;2023-02-15T06:01:07;42.8;;;27.5;;
68319;SDS011;55168;51.120;17.024;2023-02-15T06:02:00;42.8;;;27.5;;
68319;SDS011;55168;51.120;17.024;2023-02-15T06:03:00;42.8;;;27.5;;
68319;SDS011;55168;51.120;17.024;2023-02-15T06:04:00;42.8;;;27.5;;
68319;SDS011;55168;51.120;17.024;2023-02-15T06:05:00;43.8;;;27.6;;
68319;SDS011;55168;51.120;17.024;2023-02-15T06:06:00;43.8;;;27.6;;
68319;SDS011;55168;51.120;17.024;2023-02-15T06:07:00;43.8;;;27.6;;